createdAt,value
2023-05-21T00:01:03.379Z,3.2
2023-05-21T00:02:33.891Z,2.7
2023-05-21T00:04:04.403Z,3.3
2023-05-21T00:05:34.923Z,2.7
2023-05-21T00:07:05.425Z,2.5
2023-05-21T00:10:06.447Z,3.1
2023-05-21T00:11:36.958Z,2.5
2023-05-21T00:13:07.484Z,3
2023-05-21T00:14:37.981Z,2.7
2023-05-21T00:15:54.531Z,2.7
2023-05-21T00:17:11.509Z,2.9
2023-05-21T00:18:42.007Z,2.7
2023-05-21T00:20:12.526Z,3
2023-05-21T00:21:43.039Z,2.7
2023-05-21T00:23:13.537Z,2.9
2023-05-21T00:24:44.057Z,2.5
2023-05-21T00:26:14.575Z,2.7
2023-05-21T00:27:45.076Z,3.2
2023-05-21T00:29:15.601Z,2.9
2023-05-21T00:30:46.101Z,3.4
2023-05-21T00:32:03.070Z,2.9
2023-05-21T00:33:20.048Z,2.8
2023-05-21T00:34:50.564Z,2.8
2023-05-21T00:36:21.082Z,2.5
2023-05-21T00:37:51.583Z,3.1
2023-05-21T00:39:22.105Z,3
2023-05-21T00:40:52.608Z,2.8
2023-05-21T00:42:23.126Z,2.6
2023-05-21T00:43:53.638Z,3
2023-05-21T00:45:24.139Z,2.7
2023-05-21T00:46:54.654Z,2.7
2023-05-21T00:48:11.641Z,2.6
2023-05-21T00:49:28.598Z,2.8
2023-05-21T00:50:59.126Z,2.7
2023-05-21T00:52:29.632Z,2.5
2023-05-21T00:54:00.142Z,2.7
2023-05-21T00:55:30.663Z,2.9
2023-05-21T00:57:01.160Z,2.9
2023-05-21T00:58:31.669Z,2.7
2023-05-21T01:00:02.275Z,2.8
2023-05-21T01:01:40.883Z,3.1
2023-05-21T01:03:11.407Z,2.9
2023-05-21T01:04:28.377Z,2.8
2023-05-21T01:05:45.348Z,2.7
2023-05-21T01:07:15.870Z,2.6
2023-05-21T01:08:46.368Z,2.6
2023-05-21T01:10:16.877Z,2.8
2023-05-21T01:11:47.390Z,2.6
2023-05-21T01:13:17.901Z,2.9
2023-05-21T01:14:48.429Z,2.8
2023-05-21T01:16:18.943Z,3.3
2023-05-21T01:17:49.443Z,3.1
2023-05-21T01:19:19.950Z,3
2023-05-21T01:20:36.930Z,2.8
2023-05-21T01:21:53.914Z,3
2023-05-21T01:23:24.412Z,2.9
2023-05-21T01:24:54.929Z,3
2023-05-21T01:26:25.432Z,3
2023-05-21T01:27:55.947Z,3.3
2023-05-21T01:29:26.462Z,3
2023-05-21T01:30:56.978Z,2.7
2023-05-21T01:32:27.487Z,2.9
2023-05-21T01:33:58.000Z,3.2
2023-05-21T01:35:28.502Z,2.8
2023-05-21T01:38:02.457Z,3.6
2023-05-21T01:39:32.967Z,2.8
2023-05-21T01:41:03.491Z,3.2
2023-05-21T01:42:34.003Z,3
2023-05-21T01:44:04.519Z,3.3
2023-05-21T01:45:35.024Z,3
2023-05-21T01:47:05.531Z,2.9
2023-05-21T01:48:36.057Z,2.9
2023-05-21T01:50:06.574Z,3.2
2023-05-21T01:51:37.066Z,2.9
2023-05-21T01:52:54.052Z,3.3
2023-05-21T01:54:11.024Z,2.5
2023-05-21T01:55:41.543Z,2.8
2023-05-21T01:57:12.042Z,2.8
2023-05-21T01:58:42.554Z,2.7
2023-05-21T02:00:13.069Z,4.1
2023-05-21T02:01:43.584Z,3.3
2023-05-21T02:03:14.084Z,2.9
2023-05-21T02:04:44.602Z,3.1
2023-05-21T02:06:15.110Z,3
2023-05-21T02:07:45.637Z,3
2023-05-21T02:09:02.601Z,3.1
2023-05-21T02:10:19.580Z,2.8
2023-05-21T02:11:50.083Z,3.2
2023-05-21T02:13:20.597Z,3
2023-05-21T02:14:51.102Z,2.8
2023-05-21T02:16:21.629Z,3.2
2023-05-21T02:17:52.136Z,3.2
2023-05-21T02:19:22.654Z,3
2023-05-21T02:20:53.168Z,2.8
2023-05-21T02:22:23.676Z,3
2023-05-21T02:23:54.171Z,3.2
2023-05-21T02:25:11.149Z,3.1
2023-05-21T02:26:28.130Z,2.8
2023-05-21T02:27:58.648Z,3.3
2023-05-21T02:29:29.155Z,3.1
2023-05-21T02:30:59.656Z,2.9
2023-05-21T02:32:30.169Z,3.1
2023-05-21T02:34:00.694Z,2.9
2023-05-21T02:35:31.192Z,2.9
2023-05-21T02:37:01.707Z,3.2
2023-05-21T02:38:32.216Z,3.2
2023-05-21T02:40:02.746Z,2.9
2023-05-21T02:41:19.708Z,3.1
2023-05-21T02:42:36.685Z,3.3
2023-05-21T02:44:07.204Z,3.1
2023-05-21T02:45:37.704Z,3.3
2023-05-21T02:47:08.221Z,3
2023-05-21T02:48:38.725Z,3.2
2023-05-21T02:50:09.245Z,2.8
2023-05-21T02:51:39.763Z,2.8
2023-05-21T02:53:10.272Z,3.4
2023-05-21T02:54:40.768Z,3.3
2023-05-21T02:56:11.290Z,3.4
2023-05-21T02:57:27.824Z,3.2
2023-05-21T02:58:44.805Z,2.8
2023-05-21T03:00:15.323Z,2.9
2023-05-21T03:01:45.825Z,3.5
2023-05-21T03:03:16.338Z,3.3
2023-05-21T03:04:46.843Z,3.1
2023-05-21T03:06:17.363Z,3.4
2023-05-21T03:07:47.884Z,3
2023-05-21T03:09:18.391Z,3.3
2023-05-21T03:10:48.898Z,3.2
2023-05-21T03:12:19.413Z,3.4
2023-05-21T03:13:36.390Z,3.2
2023-05-21T03:14:53.349Z,3.3
2023-05-21T03:16:23.860Z,3.4
2023-05-21T03:17:54.386Z,3.4
2023-05-21T03:19:24.893Z,3.1
2023-05-21T03:20:55.401Z,3.2
2023-05-21T03:22:25.911Z,2.9
2023-05-21T03:23:56.432Z,3.3
2023-05-21T03:25:26.941Z,3.1
2023-05-21T03:26:57.441Z,3.4
2023-05-21T03:28:27.967Z,3.6
2023-05-21T03:29:44.941Z,3.4
2023-05-21T03:31:01.909Z,3.5
2023-05-21T03:32:32.418Z,3.3
2023-05-21T03:34:02.927Z,3.3
2023-05-21T03:35:33.453Z,3.1
2023-05-21T03:37:03.954Z,3.8
2023-05-21T03:38:34.463Z,3.4
2023-05-21T03:40:04.979Z,3
2023-05-21T03:41:35.483Z,3.5
2023-05-21T03:43:06.008Z,3.2
2023-05-21T03:44:36.514Z,3.4
2023-05-21T03:45:53.481Z,3.5
2023-05-21T03:47:10.462Z,3.4
2023-05-21T03:48:40.985Z,3.5
2023-05-21T03:50:11.486Z,3.6
2023-05-21T03:51:41.991Z,3.4
2023-05-21T03:53:12.518Z,3.8
2023-05-21T03:54:43.012Z,3.6
2023-05-21T03:56:13.539Z,3.8
2023-05-21T03:57:44.051Z,3.2
2023-05-21T03:59:14.562Z,3.5
2023-05-21T04:00:45.075Z,3.6
2023-05-21T04:02:02.050Z,3.6
2023-05-21T04:03:19.022Z,3.6
2023-05-21T04:04:49.536Z,3.6
2023-05-21T04:06:20.034Z,3.4
2023-05-21T04:07:50.544Z,3.4
2023-05-21T04:09:21.074Z,3.4
2023-05-21T04:10:51.569Z,3.8
2023-05-21T04:12:22.090Z,3.7
2023-05-21T04:13:52.596Z,3.4
2023-05-21T04:15:23.108Z,3.8
2023-05-21T04:16:53.632Z,3.3
2023-05-21T04:19:27.564Z,3.6
2023-05-21T04:20:58.074Z,3.6
2023-05-21T04:22:28.594Z,3.4
2023-05-21T04:23:59.097Z,3.5
2023-05-21T04:25:29.613Z,3.7
2023-05-21T04:27:00.131Z,3.2
2023-05-21T04:28:30.644Z,3.5
2023-05-21T04:30:01.157Z,3.5
2023-05-21T04:31:31.665Z,3.7
2023-05-21T04:33:02.176Z,3.6
2023-05-21T04:34:19.152Z,3.7
2023-05-21T04:35:36.133Z,3.5
2023-05-21T04:37:06.645Z,3.8
2023-05-21T04:38:37.145Z,3.4
2023-05-21T04:40:07.655Z,3.6
2023-05-21T04:41:38.171Z,3.7
2023-05-21T04:43:08.687Z,3.6
2023-05-21T04:44:39.187Z,3.8
2023-05-21T04:46:09.702Z,3.6
2023-05-21T04:47:40.213Z,3.5
2023-05-21T04:49:10.742Z,3.3
2023-05-21T04:50:27.712Z,3.7
2023-05-21T04:51:44.240Z,3.7
2023-05-21T04:53:14.746Z,3.8
2023-05-21T04:54:45.259Z,3.8
2023-05-21T04:56:15.785Z,3.6
2023-05-21T04:57:46.283Z,3.8
2023-05-21T04:59:16.794Z,3.9
2023-05-21T05:00:47.346Z,3.9
2023-05-21T05:02:17.825Z,3.9
2023-05-21T05:03:48.346Z,3.5
2023-05-21T05:05:18.857Z,3.7
2023-05-21T05:06:35.821Z,3.6
2023-05-21T05:07:52.800Z,3.3
2023-05-21T05:09:23.310Z,3.6
2023-05-21T05:10:53.829Z,3.9
2023-05-21T05:12:24.331Z,3.7
2023-05-21T05:13:54.837Z,3.8
2023-05-21T05:15:25.359Z,4
2023-05-21T05:16:55.865Z,3.8
2023-05-21T05:18:26.384Z,3.5
2023-05-21T05:19:56.880Z,3.7
2023-05-21T05:21:27.394Z,3.9
2023-05-21T05:22:44.383Z,3.6
2023-05-21T05:24:01.360Z,3.7
2023-05-21T05:25:31.867Z,3.5
2023-05-21T05:27:02.364Z,3.6
2023-05-21T05:28:32.885Z,3.6
2023-05-21T05:30:03.398Z,3.6
2023-05-21T05:31:33.914Z,4
2023-05-21T05:33:04.411Z,3.7
2023-05-21T05:34:34.933Z,3.6
2023-05-21T05:36:05.433Z,3.8
2023-05-21T05:37:35.961Z,3.9
2023-05-21T05:40:09.935Z,4.1
2023-05-21T05:41:40.412Z,4.1
2023-05-21T05:43:10.916Z,4.2
2023-05-21T05:44:41.440Z,3.9
2023-05-21T05:46:11.944Z,4
2023-05-21T05:47:42.455Z,4.6
2023-05-21T05:49:12.968Z,4.3
2023-05-21T05:50:43.492Z,4
2023-05-21T05:52:13.998Z,4
2023-05-21T05:53:44.511Z,3.9
2023-05-21T05:55:01.139Z,4.6
2023-05-21T05:56:18.111Z,4.1
2023-05-21T05:57:48.617Z,4
2023-05-21T05:59:19.135Z,3.7
2023-05-21T06:00:49.627Z,4.2
2023-05-21T06:02:20.140Z,3.4
2023-05-21T06:03:50.663Z,4.4
2023-05-21T06:05:21.175Z,3.8
2023-05-21T06:06:51.674Z,4
2023-05-21T06:08:22.205Z,4
2023-05-21T06:09:52.704Z,4.4
2023-05-21T06:11:23.212Z,4.2
2023-05-21T06:12:40.194Z,4.2
2023-05-21T06:13:56.741Z,3.7
2023-05-21T06:15:27.233Z,4
2023-05-21T06:16:57.756Z,4.1
2023-05-21T06:18:28.268Z,3.9
2023-05-21T06:19:58.784Z,4
2023-05-21T06:21:29.288Z,4.2
2023-05-21T06:22:59.837Z,4.2
2023-05-21T06:24:30.320Z,3.9
2023-05-21T06:26:00.826Z,4.2
2023-05-21T06:27:31.345Z,4.1
2023-05-21T06:28:48.313Z,4.1
2023-05-21T06:30:05.284Z,4.1
2023-05-21T06:31:35.792Z,3.8
2023-05-21T06:33:06.315Z,4.3
2023-05-21T06:34:36.829Z,4.1
2023-05-21T06:36:07.330Z,4
2023-05-21T06:37:37.838Z,3.9
2023-05-21T06:39:08.350Z,4.1
2023-05-21T06:40:38.869Z,3.9
2023-05-21T06:42:09.387Z,4
2023-05-21T06:43:39.893Z,4
2023-05-21T06:44:56.869Z,4
2023-05-21T06:46:13.837Z,4.5
2023-05-21T06:47:44.349Z,4.3
2023-05-21T06:49:14.872Z,4
2023-05-21T06:50:45.371Z,4.6
2023-05-21T06:52:15.892Z,4.1
2023-05-21T06:53:46.405Z,4.1
2023-05-21T06:55:16.909Z,3.9
2023-05-21T06:56:47.411Z,4
2023-05-21T06:58:17.935Z,4
2023-05-21T06:59:48.436Z,4
2023-05-21T07:02:22.390Z,4.2
2023-05-21T07:03:52.902Z,4.3
2023-05-21T07:05:23.412Z,4.3
2023-05-21T07:06:53.918Z,4.4
2023-05-21T07:08:24.436Z,3.9
2023-05-21T07:09:54.945Z,4.5
2023-05-21T07:11:25.469Z,3.9
2023-05-21T07:12:55.971Z,3.9
2023-05-21T07:14:26.476Z,4.3
2023-05-21T07:15:56.993Z,4
2023-05-21T07:17:13.964Z,4.2
2023-05-21T07:18:30.936Z,4.1
2023-05-21T07:20:01.457Z,4.3
2023-05-21T07:21:31.969Z,4.2
2023-05-21T07:23:02.478Z,3.9
2023-05-21T07:24:32.994Z,4.1
2023-05-21T07:26:03.505Z,3.9
2023-05-21T07:27:34.012Z,3.7
2023-05-21T07:29:04.528Z,4.1
2023-05-21T07:30:35.040Z,3.9
2023-05-21T07:32:05.556Z,4.1
2023-05-21T07:33:22.521Z,4.3
2023-05-21T07:34:39.503Z,3.7
2023-05-21T07:36:10.013Z,3.8
2023-05-21T07:37:40.519Z,4
2023-05-21T07:39:11.023Z,3.9
2023-05-21T07:40:41.551Z,4
2023-05-21T07:42:12.058Z,3.8
2023-05-21T07:43:42.562Z,3.7
2023-05-21T07:45:13.070Z,3.6
2023-05-21T07:46:43.593Z,3.9
2023-05-21T07:48:14.111Z,3.7
2023-05-21T07:49:31.068Z,3.8
2023-05-21T07:50:47.624Z,3.7
2023-05-21T07:52:18.125Z,3.9
2023-05-21T07:53:48.646Z,3.9
2023-05-21T07:55:19.141Z,3.7
2023-05-21T07:56:49.654Z,4.1
2023-05-21T07:58:20.174Z,4
2023-05-21T07:59:50.680Z,3.9
2023-05-21T08:01:21.202Z,4.1
2023-05-21T08:02:51.703Z,3.8
2023-05-21T08:04:22.223Z,3.8
2023-05-21T08:05:39.192Z,3.9
2023-05-21T08:06:56.162Z,3.7
2023-05-21T08:08:26.687Z,4.1
2023-05-21T08:09:57.194Z,3.5
2023-05-21T08:11:27.700Z,3.9
2023-05-21T08:12:58.221Z,3.9
2023-05-21T08:14:28.726Z,4
2023-05-21T08:15:59.238Z,3.7
2023-05-21T08:17:29.746Z,4.4
2023-05-21T08:19:00.269Z,3.7
2023-05-21T08:20:30.768Z,3.8
2023-05-21T08:23:04.723Z,3.8
2023-05-21T08:24:35.243Z,4
2023-05-21T08:26:05.759Z,3.9
2023-05-21T08:27:36.271Z,3.9
2023-05-21T08:29:06.771Z,3.9
2023-05-21T08:30:37.281Z,4.1
2023-05-21T08:32:07.788Z,3.6
2023-05-21T08:33:38.317Z,4.1
2023-05-21T08:35:08.809Z,3.8
2023-05-21T08:36:39.335Z,3.9
2023-05-21T08:37:56.315Z,3.9
2023-05-21T08:39:13.278Z,3.7
2023-05-21T08:40:43.792Z,4.3
2023-05-21T08:42:14.301Z,5.1
2023-05-21T08:43:44.854Z,3.6
2023-05-21T08:45:15.320Z,4
2023-05-21T08:46:45.830Z,4
2023-05-21T08:48:16.340Z,4.4
2023-05-21T08:49:46.863Z,3.9
2023-05-21T08:51:17.364Z,4
2023-05-21T08:52:47.880Z,3.5
2023-05-21T08:54:04.868Z,3.9
2023-05-21T08:55:21.831Z,3.6
2023-05-21T08:56:52.349Z,4.1
2023-05-21T08:58:22.856Z,3.8
2023-05-21T08:59:53.360Z,4.1
2023-05-21T09:01:23.883Z,3.8
2023-05-21T09:02:54.386Z,3.8
2023-05-21T09:04:24.909Z,3.7
2023-05-21T09:05:55.412Z,3.7
2023-05-21T09:07:25.915Z,3.8
2023-05-21T09:08:56.447Z,4.2
2023-05-21T09:10:13.403Z,3.6
2023-05-21T09:11:30.378Z,4.1
2023-05-21T09:13:00.902Z,3.7
2023-05-21T09:14:31.405Z,4
2023-05-21T09:16:01.928Z,3.8
2023-05-21T09:17:32.421Z,3.9
2023-05-21T09:19:02.954Z,3.9
2023-05-21T09:20:33.458Z,4.3
2023-05-21T09:22:03.966Z,4
2023-05-21T09:23:34.475Z,4.1
2023-05-21T09:25:04.988Z,3.7
2023-05-21T09:26:21.955Z,4.2
2023-05-21T09:27:38.494Z,3.7
2023-05-21T09:29:09.022Z,3.7
2023-05-21T09:30:39.528Z,3.9
2023-05-21T09:32:10.029Z,3.8
2023-05-21T09:33:40.549Z,4.3
2023-05-21T09:35:11.064Z,3.6
2023-05-21T09:36:41.565Z,3.9
2023-05-21T09:38:12.085Z,3.9
2023-05-21T09:39:42.594Z,4.1
2023-05-21T09:41:13.104Z,4.2
2023-05-21T09:43:47.050Z,3.5
2023-05-21T09:45:17.575Z,4.6
2023-05-21T09:46:48.084Z,3.8
2023-05-21T09:48:18.595Z,3.7
2023-05-21T09:49:49.100Z,3.9
2023-05-21T09:51:19.610Z,4.2
2023-05-21T09:52:50.136Z,3.6
2023-05-21T09:54:20.639Z,4
2023-05-21T09:55:51.144Z,4.1
2023-05-21T09:57:21.659Z,4
2023-05-21T09:58:38.636Z,3.7
2023-05-21T09:59:55.620Z,3.8
2023-05-21T10:01:26.126Z,3.9
2023-05-21T10:02:56.634Z,4.3
2023-05-21T10:04:27.154Z,3.9
2023-05-21T10:05:57.663Z,4
2023-05-21T10:07:28.172Z,3.7
2023-05-21T10:10:29.196Z,3.7
2023-05-21T10:11:59.701Z,3.7
2023-05-21T10:13:30.219Z,3.7
2023-05-21T10:14:47.188Z,4.1
2023-05-21T10:16:04.175Z,3.5
2023-05-21T10:17:34.673Z,4.1
2023-05-21T10:19:05.204Z,3.8
2023-05-21T10:20:35.705Z,3.8
2023-05-21T10:22:06.212Z,3.7
2023-05-21T10:23:36.740Z,3.7
2023-05-21T10:25:07.235Z,3.8
2023-05-21T10:26:37.748Z,3.9
2023-05-21T10:28:08.269Z,3.8
2023-05-21T10:29:38.773Z,3.5
2023-05-21T10:30:55.753Z,3.9
2023-05-21T10:32:12.730Z,3.5
2023-05-21T10:33:43.238Z,4
2023-05-21T10:35:13.740Z,3.6
2023-05-21T10:36:44.265Z,3.9
2023-05-21T10:38:14.771Z,3.7
2023-05-21T10:39:45.276Z,3.8
2023-05-21T10:41:15.802Z,3.4
2023-05-21T10:42:46.299Z,4
2023-05-21T10:44:16.814Z,3.8
2023-05-21T10:45:47.327Z,4
2023-05-21T10:47:04.304Z,3.4
2023-05-21T10:48:21.281Z,3.6
2023-05-21T10:49:51.868Z,3.6
2023-05-21T10:51:30.499Z,4
2023-05-21T10:53:01.003Z,3.6
2023-05-21T10:54:31.520Z,3.9
2023-05-21T10:56:02.014Z,3.4
2023-05-21T10:57:32.534Z,3.3
2023-05-21T10:59:03.054Z,3.7
2023-05-21T11:00:33.560Z,3.5
2023-05-21T11:02:04.069Z,3.5
2023-05-21T11:03:21.044Z,3.3
2023-05-21T11:04:38.024Z,3.5
2023-05-21T11:06:08.532Z,3.5
2023-05-21T11:07:39.039Z,3.7
2023-05-21T11:09:09.554Z,3.6
2023-05-21T11:10:40.067Z,3.8
2023-05-21T11:12:10.573Z,3.5
2023-05-21T11:13:41.096Z,3.5
2023-05-21T11:15:11.593Z,3.8
2023-05-21T11:16:42.120Z,3.6
2023-05-21T11:18:12.617Z,3.8
2023-05-21T11:19:29.603Z,3.8
2023-05-21T11:20:46.570Z,3.8
2023-05-21T11:22:17.080Z,3.4
2023-05-21T11:23:47.592Z,3.5
2023-05-21T11:25:18.106Z,3.6
2023-05-21T11:26:48.630Z,3.4
2023-05-21T11:28:19.136Z,3.8
2023-05-21T11:29:49.646Z,3.5
2023-05-21T11:31:20.153Z,3.2
2023-05-21T11:32:50.660Z,3.8
2023-05-21T11:34:21.181Z,3.8
2023-05-21T11:35:38.148Z,3.4
2023-05-21T11:36:55.125Z,3.5
2023-05-21T11:38:25.635Z,3.7
2023-05-21T11:39:56.149Z,3.5
2023-05-21T11:41:26.663Z,3.6
2023-05-21T11:42:57.167Z,3.9
2023-05-21T11:44:27.675Z,3.7
2023-05-21T11:45:58.192Z,3.8
2023-05-21T11:47:28.698Z,3.7
2023-05-21T11:48:59.229Z,3.8
2023-05-21T11:50:29.729Z,3.6
2023-05-21T11:51:46.700Z,3.3
2023-05-21T11:53:03.682Z,3.7
2023-05-21T11:54:34.186Z,3.7
2023-05-21T11:56:04.711Z,3.8
2023-05-21T11:57:35.215Z,3.9
2023-05-21T11:59:05.731Z,3.6
2023-05-21T12:00:36.232Z,3.9
2023-05-21T12:02:06.753Z,3.7
2023-05-21T12:03:37.270Z,3.7
2023-05-21T12:05:07.773Z,4.1
2023-05-21T12:06:38.289Z,3.4
2023-05-21T12:07:55.264Z,3.9
2023-05-21T12:09:12.237Z,3.4
2023-05-21T12:10:42.743Z,3.3
2023-05-21T12:12:13.307Z,3.5
2023-05-21T12:13:43.761Z,3.2
2023-05-21T12:15:14.291Z,3.7
2023-05-21T12:16:44.802Z,3.6
2023-05-21T12:18:15.298Z,3.3
2023-05-21T12:19:45.807Z,3.4
2023-05-21T12:21:16.337Z,4
2023-05-21T12:22:46.842Z,3.7
2023-05-21T12:24:03.820Z,3.6
2023-05-21T12:25:20.362Z,3.3
2023-05-21T12:26:50.875Z,3.7
2023-05-21T12:28:21.387Z,3.7
2023-05-21T12:29:51.897Z,3.5
2023-05-21T12:31:22.410Z,4.1
2023-05-21T12:32:52.919Z,3.7
2023-05-21T12:34:23.426Z,3.8
2023-05-21T12:35:53.930Z,3.5
2023-05-21T12:37:24.447Z,3.6
2023-05-21T12:38:54.967Z,3.8
2023-05-21T12:40:11.944Z,3.7
2023-05-21T12:41:28.909Z,3.7
2023-05-21T12:42:59.417Z,3.6
2023-05-21T12:44:29.933Z,3.3
2023-05-21T12:46:00.439Z,3.4
2023-05-21T12:47:30.943Z,3.5
2023-05-21T12:49:01.456Z,3.9
2023-05-21T12:50:31.985Z,3.5
2023-05-21T12:52:02.500Z,3.9
2023-05-21T12:53:33.011Z,3.7
2023-05-21T12:55:03.502Z,3.7
2023-05-21T12:56:20.482Z,3.7
2023-05-21T12:57:37.458Z,3.8
2023-05-21T12:59:07.978Z,3.7
2023-05-21T13:00:38.475Z,3.6
2023-05-21T13:02:08.000Z,3.6
2023-05-21T13:03:39.508Z,3.2
2023-05-21T13:05:10.026Z,3.6
2023-05-21T13:06:40.527Z,3.6
2023-05-21T13:08:11.039Z,3.5
2023-05-21T13:09:41.558Z,3.4
2023-05-21T13:11:12.071Z,4
2023-05-21T13:12:29.028Z,3.8
2023-05-21T13:13:46.008Z,3
2023-05-21T13:15:16.526Z,3.5
2023-05-21T13:16:47.033Z,3.7
2023-05-21T13:18:17.537Z,3.1
2023-05-21T13:19:48.058Z,3.6
2023-05-21T13:21:18.581Z,3.7
2023-05-21T13:22:49.080Z,3.5
2023-05-21T13:24:19.595Z,3.5
2023-05-21T13:25:50.102Z,3.6
2023-05-21T13:27:20.627Z,3.4
2023-05-21T13:28:37.594Z,3.4
2023-05-21T13:29:54.556Z,3.3
2023-05-21T13:31:25.070Z,3.1
2023-05-21T13:32:55.586Z,3.7
2023-05-21T13:34:26.094Z,3.8
2023-05-21T13:35:56.610Z,3.5
2023-05-21T13:37:27.130Z,3.3
2023-05-21T13:38:57.634Z,3.6
2023-05-21T13:40:28.151Z,3.8
2023-05-21T13:41:58.667Z,3.5
2023-05-21T13:43:29.175Z,3.6
2023-05-21T13:44:46.134Z,4
2023-05-21T13:46:03.110Z,3.3
2023-05-21T13:47:33.630Z,3.6
2023-05-21T13:49:04.135Z,3.6
2023-05-21T13:50:34.650Z,3.8
2023-05-21T13:52:05.172Z,3.4
2023-05-21T13:53:35.683Z,3.8
2023-05-21T13:55:06.187Z,3.6
2023-05-21T13:56:36.702Z,3.5
2023-05-21T13:58:07.204Z,3.3
2023-05-21T13:59:37.728Z,3.8
2023-05-21T14:00:54.271Z,3.6
2023-05-21T14:02:11.240Z,3.6
2023-05-21T14:03:41.751Z,3.6
2023-05-21T14:05:12.259Z,3.3
2023-05-21T14:06:42.768Z,3.6
2023-05-21T14:08:13.279Z,3.6
2023-05-21T14:09:43.790Z,3.6
2023-05-21T14:11:14.315Z,3.8
2023-05-21T14:12:44.828Z,3.7
2023-05-21T14:14:15.328Z,3.5
2023-05-21T14:15:45.839Z,3.3
2023-05-21T14:17:02.826Z,4
2023-05-21T14:18:19.845Z,3.4
2023-05-21T14:19:50.311Z,3.2
2023-05-21T14:21:20.815Z,3.6
2023-05-21T14:22:51.318Z,3.6
2023-05-21T14:24:21.830Z,3.8
2023-05-21T14:25:52.357Z,3.6
2023-05-21T14:27:22.858Z,3.7
2023-05-21T14:28:53.373Z,3.3
2023-05-21T14:30:23.881Z,3.4
2023-05-21T14:31:54.408Z,3.2
2023-05-21T14:33:11.369Z,3.6
2023-05-21T14:34:28.347Z,3.6
2023-05-21T14:35:58.858Z,3.6
2023-05-21T14:37:29.375Z,3.8
2023-05-21T14:38:59.873Z,3.4
2023-05-21T14:40:30.400Z,4
2023-05-21T14:42:00.897Z,3.8
2023-05-21T14:43:31.425Z,3.8
2023-05-21T14:45:01.933Z,3.3
2023-05-21T14:46:32.435Z,3.4
2023-05-21T14:48:02.948Z,3.4
2023-05-21T14:49:19.979Z,3.6
2023-05-21T14:50:36.901Z,3.4
2023-05-21T14:52:07.419Z,3.4
2023-05-21T14:53:37.923Z,3.3
2023-05-21T14:55:08.426Z,3.2
2023-05-21T14:56:38.945Z,3.5
2023-05-21T14:58:09.463Z,3.2
2023-05-21T14:59:39.980Z,3.2
2023-05-21T15:01:10.481Z,3.5
2023-05-21T15:02:40.991Z,3.3
2023-05-21T15:04:11.500Z,3.8
2023-05-21T15:05:28.470Z,3.6
2023-05-21T15:06:45.448Z,3.5
2023-05-21T15:08:15.967Z,4
2023-05-21T15:09:46.475Z,3.5
2023-05-21T15:11:16.994Z,3.6
2023-05-21T15:12:47.493Z,3.5
2023-05-21T15:14:18.003Z,4
2023-05-21T15:15:48.524Z,3.7
2023-05-21T15:17:19.030Z,3.2
2023-05-21T15:18:49.538Z,3.3
2023-05-21T15:20:20.059Z,3.5
2023-05-21T15:21:37.029Z,3
2023-05-21T15:22:53.999Z,3.3
2023-05-21T15:24:24.516Z,3.5
2023-05-21T15:25:55.026Z,3.6
2023-05-21T15:27:25.549Z,3.1
2023-05-21T15:28:56.045Z,3.3
2023-05-21T15:30:26.552Z,3.3
2023-05-21T15:31:57.075Z,3.2
2023-05-21T15:33:27.588Z,3.2
2023-05-21T15:34:58.106Z,3.7
2023-05-21T15:36:28.609Z,3.4
2023-05-21T15:37:45.575Z,3.5
2023-05-21T15:39:02.567Z,3.4
2023-05-21T15:40:33.068Z,3.2
2023-05-21T15:42:03.576Z,3.5
2023-05-21T15:43:34.097Z,3.6
2023-05-21T15:45:04.690Z,3.5
2023-05-21T15:46:43.311Z,3.1
2023-05-21T15:48:13.828Z,3.6
2023-05-21T15:49:44.339Z,3.7
2023-05-21T15:51:14.852Z,3.3
2023-05-21T15:52:45.356Z,3.7
2023-05-21T15:54:02.332Z,3.8
2023-05-21T15:55:19.305Z,3.8
2023-05-21T15:56:49.806Z,3.5
2023-05-21T15:58:20.319Z,3.4
2023-05-21T15:59:50.833Z,3.4
2023-05-21T16:01:21.357Z,3.4
2023-05-21T16:02:51.863Z,3.6
2023-05-21T16:04:22.428Z,3.6
2023-05-21T16:05:52.891Z,3.2
2023-05-21T16:07:23.384Z,3.5
2023-05-21T16:08:53.905Z,3.3
2023-05-21T16:10:10.882Z,3.2
2023-05-21T16:11:27.849Z,3.2
2023-05-21T16:12:58.355Z,3.5
2023-05-21T16:14:28.887Z,3.1
2023-05-21T16:15:59.396Z,3.7
2023-05-21T16:17:29.902Z,3.3
2023-05-21T16:19:00.404Z,3.5
2023-05-21T16:20:30.934Z,3.5
2023-05-21T16:22:01.433Z,3.6
2023-05-21T16:23:31.941Z,3.3
2023-05-21T16:25:02.448Z,3.5
2023-05-21T16:27:36.414Z,3.5
2023-05-21T16:29:06.922Z,3.4
2023-05-21T16:30:37.437Z,3.5
2023-05-21T16:32:07.946Z,3.2
2023-05-21T16:33:38.458Z,3.1
2023-05-21T16:35:08.975Z,3.5
2023-05-21T16:36:39.482Z,3.8
2023-05-21T16:38:09.986Z,3.4
2023-05-21T16:39:40.509Z,3.3
2023-05-21T16:41:11.010Z,3.2
2023-05-21T16:42:27.556Z,3.7
2023-05-21T16:43:44.525Z,3.6
2023-05-21T16:45:15.046Z,3.6
2023-05-21T16:46:45.557Z,3.3
2023-05-21T16:48:16.062Z,3.8
2023-05-21T16:49:46.577Z,3.2
2023-05-21T16:51:17.092Z,3.3
2023-05-21T16:52:47.597Z,3.8
2023-05-21T16:54:18.107Z,3.8
2023-05-21T16:55:48.631Z,3.6
2023-05-21T16:57:19.135Z,3.7
2023-05-21T16:58:36.102Z,3.1
2023-05-21T16:59:53.075Z,3.3
2023-05-21T17:01:23.592Z,3.1
2023-05-21T17:04:24.618Z,3.1
2023-05-21T17:05:55.136Z,3
2023-05-21T17:07:25.631Z,3.5
2023-05-21T17:08:56.158Z,3.5
2023-05-21T17:10:26.662Z,3.4
2023-05-21T17:11:57.233Z,3.1
2023-05-21T17:13:27.685Z,3.2
2023-05-21T17:14:44.660Z,3.6
2023-05-21T17:16:01.632Z,3
2023-05-21T17:17:32.139Z,3.5
2023-05-21T17:19:02.663Z,3
2023-05-21T17:20:33.166Z,3.4
2023-05-21T17:22:03.680Z,3.4
2023-05-21T17:23:34.186Z,4
2023-05-21T17:25:04.701Z,3.5
2023-05-21T17:26:35.221Z,3.2
2023-05-21T17:28:05.725Z,3.6
2023-05-21T17:29:36.236Z,3.3
2023-05-21T17:30:53.207Z,3.8
2023-05-21T17:32:10.185Z,3.1
2023-05-21T17:33:40.690Z,3.5
2023-05-21T17:35:11.206Z,3.4
2023-05-21T17:36:41.712Z,3.6
2023-05-21T17:38:12.239Z,3.7
2023-05-21T17:39:42.752Z,3.5
2023-05-21T17:41:13.257Z,3.5
2023-05-21T17:42:43.768Z,3.5
2023-05-21T17:44:14.281Z,3.7
2023-05-21T17:45:44.851Z,3.5
2023-05-21T17:47:01.766Z,3.6
2023-05-21T17:48:18.746Z,3.1
2023-05-21T17:49:49.255Z,3.1
2023-05-21T17:51:19.761Z,3.1
2023-05-21T17:52:50.270Z,3.6
2023-05-21T17:54:20.783Z,3.5
2023-05-21T17:55:51.293Z,3
2023-05-21T17:57:21.801Z,3.3
2023-05-21T17:58:52.328Z,3.6
2023-05-21T18:00:22.825Z,3.5
2023-05-21T18:01:53.339Z,3.2
2023-05-21T18:03:10.327Z,3.4
2023-05-21T18:04:27.292Z,3.2
2023-05-21T18:05:57.794Z,3.5
2023-05-21T18:07:28.321Z,3.3
2023-05-21T18:08:58.826Z,3.3
2023-05-21T18:10:29.328Z,3.6
2023-05-21T18:11:59.857Z,3.2
2023-05-21T18:13:30.366Z,3.4
2023-05-21T18:15:00.885Z,3.3
2023-05-21T18:16:31.381Z,3.1
2023-05-21T18:18:01.903Z,3.5
2023-05-21T18:19:18.862Z,3.2
2023-05-21T18:20:35.854Z,3.2
2023-05-21T18:22:06.364Z,3.5
2023-05-21T18:23:36.864Z,3.3
2023-05-21T18:25:07.443Z,3.6
2023-05-21T18:26:37.882Z,3.3
2023-05-21T18:28:08.398Z,3.4
2023-05-21T18:29:38.912Z,3
2023-05-21T18:31:09.437Z,3.1
2023-05-21T18:32:39.948Z,3.1
2023-05-21T18:34:10.454Z,3.1
2023-05-21T18:35:27.434Z,3.3
2023-05-21T18:36:43.970Z,3.4
2023-05-21T18:38:14.475Z,2.9
2023-05-21T18:39:44.992Z,3.1
2023-05-21T18:41:15.499Z,3.7
2023-05-21T18:42:46.012Z,3.3
2023-05-21T18:44:16.531Z,3.2
2023-05-21T18:45:47.037Z,3.1
2023-05-21T18:47:17.548Z,3.1
2023-05-21T18:48:48.060Z,3.3
2023-05-21T18:50:18.572Z,3.2
2023-05-21T18:51:35.545Z,3.7
2023-05-21T18:52:52.517Z,3.5
2023-05-21T18:54:23.022Z,3.6
2023-05-21T18:55:53.000Z,3.4
2023-05-21T18:57:24.047Z,2.9
2023-05-21T18:58:54.574Z,3.2
2023-05-21T19:00:25.075Z,3.1
2023-05-21T19:01:55.583Z,3.4
2023-05-21T19:03:26.105Z,3.2
2023-05-21T19:04:56.614Z,3.4
2023-05-21T19:06:27.121Z,3.4
2023-05-21T19:07:44.093Z,2.9
2023-05-21T19:09:01.136Z,3.2
2023-05-21T19:10:31.593Z,3
2023-05-21T19:12:02.105Z,3.4
2023-05-21T19:13:32.610Z,3.1
2023-05-21T19:15:03.121Z,3.5
2023-05-21T19:16:33.634Z,3.3
2023-05-21T19:18:04.140Z,3.1
2023-05-21T19:19:34.658Z,3.3
2023-05-21T19:21:05.176Z,3.4
2023-05-21T19:22:35.686Z,3
2023-05-21T19:23:52.661Z,5.1
2023-05-21T19:25:09.626Z,2.9
2023-05-21T19:26:40.133Z,3.1
2023-05-21T19:28:10.646Z,3
2023-05-21T19:29:41.171Z,3.4
2023-05-21T19:31:11.673Z,3
2023-05-21T19:32:42.181Z,3.2
2023-05-21T19:34:12.694Z,3.4
2023-05-21T19:35:43.206Z,3.2
2023-05-21T19:37:13.714Z,3
2023-05-21T19:38:44.234Z,2.9
2023-05-21T19:40:01.219Z,3.7
2023-05-21T19:41:18.176Z,3
2023-05-21T19:42:48.707Z,3
2023-05-21T19:44:19.216Z,3
2023-05-21T19:45:49.711Z,3.4
2023-05-21T19:47:20.232Z,2.8
2023-05-21T19:48:50.740Z,3.4
2023-05-21T19:50:21.252Z,3.2
2023-05-21T19:51:51.776Z,3.2
2023-05-21T19:53:22.270Z,3.3
2023-05-21T19:54:52.782Z,2.9
2023-05-21T19:56:09.764Z,3.1
2023-05-21T19:57:26.728Z,3
2023-05-21T19:58:57.239Z,3.3
2023-05-21T20:00:27.750Z,2.8
2023-05-21T20:01:58.264Z,3.2
2023-05-21T20:03:28.794Z,3.2
2023-05-21T20:04:59.304Z,2.9
2023-05-21T20:06:29.804Z,3
2023-05-21T20:08:00.310Z,3.7
2023-05-21T20:09:30.834Z,2.9
2023-05-21T20:11:01.355Z,3
2023-05-21T20:12:17.888Z,3.2
2023-05-21T20:13:34.849Z,3.1
2023-05-21T20:15:05.365Z,3.3
2023-05-21T20:16:35.878Z,3.3
2023-05-21T20:18:06.393Z,3.1
2023-05-21T20:19:36.897Z,3.4
2023-05-21T20:21:07.415Z,3.1
2023-05-21T20:22:37.928Z,3.7
2023-05-21T20:24:08.442Z,3.1
2023-05-21T20:25:38.956Z,3
2023-05-21T20:27:09.471Z,3
2023-05-21T20:28:26.438Z,3
2023-05-21T20:29:43.402Z,3.2
2023-05-21T20:31:13.914Z,3.6
2023-05-21T20:32:44.443Z,3.1
2023-05-21T20:34:14.953Z,3.3
2023-05-21T20:35:45.467Z,3.3